Airfield :
LOGIN :

Register | Disclaimer

   EN    FR    IT 

 










Legend :    VFR   Marginal VFR   IFR   Intensive IFR   Very Intensive IFR
Visi :
Ceiling :
>= 8 km
>= 3000ft
5 to 8 km
1000 to 3000 ft
1500m to 5 km
500 to 1000 ft
800 to 1500m
200 to 500 ft
< 800m
< 200 ft
Symbols :   Thunderstorms  Fog  Heavy snow  Heavy precipitations  Wind > 20 kt
SIGMETs :     Misc.  Thunderstorms  Icing  Turbulence  Mountain Waves  Volcanic Ashes






- Airport Elevation : 17 ft
- IATA code : CPH


EKCH - København - Kastrup (Copenhagen)

CURRENT METAR :
  • 190350Z 21016KT 7000 -SHRA SCT013CB OVC016 06/04 Q1002 TEMPO 4000 SHRA BKN012

EXPIRED METARs :
  • 190320Z 20015KT 9000 -SHRA SCT013CB OVC020 06/04 Q1003 TEMPO 4000 SHRA BKN012
  • 190250Z 20013KT 7000 -SHRA SCT013CB OVC030 05/04 Q1003 TEMPO 4000 SHRA BKN012
  • 190220Z 20015KT 9999 -SHRA SCT013CB OVC015 05/04 Q1004 TEMPO 4000 SHRA BKN012
  • 190150Z 20012KT 9999 -SHRA SCT013CB OVC015 05/04 Q1005 TEMPO 4000 SHRA BKN012
  • 190120Z 21014KT 9999 BKN018 05/03 Q1005 TEMPO SCT025CB

TAF TAF EKCH
Valid from the 19 at 00:00 until the 20 at 00:00 UTC


182300Z 1900/1924 23018KT 9999 BKN020
TEMPO 1900/1907 23018G28KT 4000 SHRAGS BKN010 BKN015CB
BECMG 1907/1909 27010KT
TEMPO 1909/1924 SHRA SCT020CB



MET'MAP, your aeronautical weather chart ! - Copyright ORBIFLY December 2007 - Disclaimer

ORBIFLY MET'MAP TEAM :

Programming & Development : Alexandra Zaïnal
Concept & original design : Baudouin d'Aumeries
Assistance for programming : Marc-Olivier Méhu
Technical & hardware support : Manuel Goepfert

Contact : metmap@orbifly.com




SOURCES & CREDITS :

   NOAA